Time;durP1;ratioP1;P1;durP2;ratioP2;P2;SDS_P1;SDS_P2;PMS_P1;PMS_P2;Temp;Humidity;BMP_temperature;BMP_pressure;BME280_temperature;BME280_humidity;BME280_pressure;Samples;Min_cycle;Max_cycle;Signal;HPM_P1;HPM_P2
2022/03/19 00:00:47;;;;;;;9.07;3.28;;;;;;;;;;5034072;28;20042;-83
2022/03/19 00:03:13;;;;;;;6.68;2.25;;;;;;;;;;5017607;28;20092;-83
2022/03/19 00:05:39;;;;;;;6.28;2.67;;;;;;;;;;5017482;28;20048;-83
2022/03/19 00:08:05;;;;;;;6.35;2.20;;;;;;;;;;5034218;28;20139;-83
2022/03/19 00:10:32;;;;;;;6.60;2.40;;;;;;;;;;5017564;28;20041;-83
2022/03/19 00:12:58;;;;;;;10.65;3.20;;;;;;;;;;5017704;28;20080;-83
2022/03/19 00:15:25;;;;;;;5.85;2.45;;;;;;;;;;5017950;28;20473;-83
2022/03/19 00:17:54;;;;;;;8.55;2.65;;;;;;;;;;5034433;28;20053;-83
2022/03/19 00:20:20;;;;;;;7.88;2.40;;;;;;;;;;5017415;28;20041;-84
2022/03/19 00:22:46;;;;;;;6.20;2.08;;;;;;;;;;5034287;28;20049;-84
2022/03/19 00:25:12;;;;;;;16.95;3.13;;;;;;;;;;5033965;28;20045;-84
2022/03/19 00:27:40;;;;;;;7.47;2.42;;;;;;;;;;5033274;28;20053;-84
2022/03/19 00:30:07;;;;;;;14.77;2.97;;;;;;;;;;5034554;28;20471;-83
2022/03/19 00:32:33;;;;;;;8.20;2.97;;;;;;;;;;5033585;28;20052;-83
2022/03/19 00:34:59;;;;;;;10.45;2.15;;;;;;;;;;5034728;28;20038;-84
2022/03/19 00:37:25;;;;;;;10.57;2.60;;;;;;;;;;5017824;28;20053;-83
2022/03/19 00:39:51;;;;;;;14.50;3.35;;;;;;;;;;5033818;28;20041;-84
2022/03/19 00:42:17;;;;;;;8.63;2.83;;;;;;;;;;5016487;28;20140;-84
2022/03/19 00:44:44;;;;;;;8.32;2.60;;;;;;;;;;5017781;28;20120;-83
2022/03/19 00:47:10;;;;;;;11.48;4.15;;;;;;;;;;5017353;28;20128;-83
2022/03/19 00:49:36;;;;;;;9.38;2.28;;;;;;;;;;5033410;28;20042;-84
2022/03/19 00:52:03;;;;;;;9.20;2.80;;;;;;;;;;5033696;28;20456;-84
2022/03/19 00:54:29;;;;;;;11.73;3.10;;;;;;;;;;5034124;28;20076;-83
2022/03/19 00:56:55;;;;;;;10.93;2.47;;;;;;;;;;5017140;28;20108;-84
2022/03/19 00:59:21;;;;;;;11.98;2.92;;;;;;;;;;5016700;28;20048;-83
2022/03/19 01:01:47;;;;;;;8.65;2.10;;;;;;;;;;5032618;28;20045;-83
2022/03/19 01:04:13;;;;;;;12.85;3.25;;;;;;;;;;5033212;28;20046;-84
2022/03/19 01:06:39;;;;;;;10.43;2.10;;;;;;;;;;5032805;28;20155;-82
2022/03/19 01:09:05;;;;;;;10.88;2.83;;;;;;;;;;5032952;28;20068;-85
2022/03/19 01:11:31;;;;;;;9.13;2.20;;;;;;;;;;5033050;28;20498;-83
2022/03/19 01:13:57;;;;;;;4.47;2.95;;;;;;;;;;5017029;28;20375;-84
2022/03/19 01:16:26;;;;;;;8.90;2.90;;;;;;;;;;5033169;28;20046;-85
2022/03/19 01:18:52;;;;;;;9.90;2.38;;;;;;;;;;5016811;28;20461;-84
2022/03/19 01:21:18;;;;;;;11.13;2.70;;;;;;;;;;5016064;28;20079;-84
2022/03/19 01:23:44;;;;;;;15.18;2.95;;;;;;;;;;5016637;28;20048;-84
2022/03/19 01:26:10;;;;;;;11.25;3.70;;;;;;;;;;5032898;28;20038;-86
2022/03/19 01:28:38;;;;;;;18.10;2.75;;;;;;;;;;5033112;28;20049;-86
2022/03/19 01:31:04;;;;;;;10.60;2.50;;;;;;;;;;5016976;28;20420;-85
2022/03/19 01:33:30;;;;;;;13.45;4.28;;;;;;;;;;5016762;28;20112;-87
2022/03/19 01:35:56;;;;;;;17.25;3.22;;;;;;;;;;5033366;28;20406;-84
2022/03/19 01:38:22;;;;;;;12.05;3.00;;;;;;;;;;5016412;28;20522;-83
2022/03/19 01:40:48;;;;;;;5.40;3.13;;;;;;;;;;5018974;28;20045;-84
2022/03/19 01:43:14;;;;;;;5.20;3.03;;;;;;;;;;5020022;28;20057;-85
2022/03/19 01:45:40;;;;;;;9.43;2.95;;;;;;;;;;5037127;28;20120;-87
2022/03/19 01:48:06;;;;;;;13.80;3.40;;;;;;;;;;5036899;28;20084;-87
2022/03/19 01:50:32;;;;;;;21.67;3.08;;;;;;;;;;5037127;28;20399;-85
2022/03/19 01:52:58;;;;;;;10.77;3.25;;;;;;;;;;5037194;28;20552;-85
2022/03/19 01:55:26;;;;;;;8.90;3.00;;;;;;;;;;5036882;28;20038;-85
2022/03/19 01:57:52;;;;;;;11.43;3.13;;;;;;;;;;5036711;28;20136;-84
2022/03/19 02:00:21;;;;;;;15.30;4.00;;;;;;;;;;5019515;28;20033;-85
2022/03/19 02:02:48;;;;;;;6.78;2.60;;;;;;;;;;5019718;28;20049;-86
2022/03/19 02:05:19;;;;;;;10.60;3.05;;;;;;;;;;5035861;28;20038;-82
2022/03/19 02:07:46;;;;;;;17.67;3.13;;;;;;;;;;5019426;28;20085;-83
2022/03/19 02:10:16;;;;;;;12.95;3.33;;;;;;;;;;5019372;28;20045;-82
2022/03/19 02:12:44;;;;;;;8.40;3.30;;;;;;;;;;5035987;28;20411;-82
2022/03/19 02:15:11;;;;;;;10.00;4.15;;;;;;;;;;5035603;28;20083;-83
2022/03/19 02:17:37;;;;;;;9.20;2.92;;;;;;;;;;5035472;28;20037;-83
2022/03/19 02:20:04;;;;;;;11.43;3.33;;;;;;;;;;5035486;28;20052;-83
2022/03/19 02:22:30;;;;;;;11.90;2.92;;;;;;;;;;5019248;28;20041;-84
2022/03/19 02:27:42;;;;;;;15.15;3.75;;;;;;;;;;5035150;28;20111;-85
2022/03/19 02:30:14;;;;;;;10.80;2.92;;;4.20;99.90;;;;;;5036015;28;20042;-83
2022/03/19 02:32:42;;;;;;;12.73;3.85;;;;;;;;;;5035269;28;20045;-85
2022/03/19 02:35:09;;;;;;;12.40;3.58;;;;;;;;;;5018953;28;20057;-84
2022/03/19 02:37:43;;;;;;;10.70;2.88;;;;;;;;;;5018961;28;20474;-84
2022/03/19 02:40:10;;;;;;;15.23;3.45;;;;;;;;;;5018742;28;20049;-84
2022/03/19 02:42:36;;;;;;;17.65;3.53;;;;;;;;;;5034838;28;20497;-84
2022/03/19 02:45:05;;;;;;;9.07;3.67;;;;;;;;;;5034818;28;20072;-83
2022/03/19 02:47:32;;;;;;;16.80;3.47;;;;;;;;;;5018575;28;20045;-84
2022/03/19 02:49:58;;;;;;;16.67;3.40;;;;;;;;;;5034475;28;20041;-84
2022/03/19 02:52:24;;;;;;;6.15;3.70;;;;;;;;;;5034986;28;20135;-85
2022/03/19 02:54:50;;;;;;;9.65;3.25;;;;;;;;;;5035051;28;20041;-86
2022/03/19 02:57:16;;;;;;;13.73;4.30;;;;;;;;;;5034656;28;20092;-83
2022/03/19 02:59:42;;;;;;;12.07;3.33;;;;;;;;;;5034978;28;20099;-83
2022/03/19 03:02:08;;;;;;;11.80;3.83;;;;;;;;;;5018543;28;20049;-83
2022/03/19 03:04:34;;;;;;;10.95;3.67;;;;;;;;;;5018424;28;20042;-84
2022/03/19 03:07:02;;;;;;;9.60;2.80;;;;;;;;;;5034750;28;20056;-83
2022/03/19 03:09:29;;;;;;;7.13;3.45;;;4.10;99.90;;;;;;5017898;28;20048;-83
2022/03/19 03:11:55;;;;;;;10.57;4.43;;;;;;;;;;5034930;28;20041;-83
2022/03/19 03:14:22;;;;;;;14.30;3.75;;;;;;;;;;5035247;28;20057;-83
2022/03/19 03:16:52;;;;;;;6.82;4.22;;;;;;;;;;5018435;28;20042;-83
2022/03/19 03:19:18;;;;;;;13.00;4.25;;;;;;;;;;5018288;28;20148;-83
2022/03/19 03:21:45;;;;;;;10.27;3.10;;;;;;;;;;5034402;28;20045;-83
2022/03/19 03:24:12;;;;;;;10.18;3.90;;;;;;;;;;5034260;28;20052;-83
2022/03/19 03:26:38;;;;;;;19.10;4.18;;;;;;;;;;5034221;28;20052;-82
2022/03/19 03:29:04;;;;;;;11.52;3.70;;;;;;;;;;5034172;28;20132;-83
2022/03/19 03:31:31;;;;;;;15.73;4.38;;;;;;;;;;5017972;28;20128;-83
2022/03/19 03:33:57;;;;;;;9.77;4.72;;;;;;;;;;5034688;28;20037;-83
2022/03/19 03:36:23;;;;;;;13.75;3.92;;;;;;;;;;5034748;28;20049;-83
2022/03/19 03:38:49;;;;;;;13.77;3.90;;;;;;;;;;5034709;28;20517;-82
2022/03/19 03:41:16;;;;;;;14.10;4.95;;;;;;;;;;5018162;28;20464;-84
2022/03/19 03:43:42;;;;;;;14.50;3.70;;;;;;;;;;5017984;28;20363;-84
2022/03/19 03:46:08;;;;;;;11.13;3.95;;;;;;;;;;5017959;28;20471;-82
2022/03/19 03:48:35;;;;;;;12.57;4.38;;;;;;;;;;5017765;28;20072;-83
2022/03/19 03:51:01;;;;;;;10.73;3.90;;;;;;;;;;5018233;28;20042;-82
2022/03/19 03:53:28;;;;;;;21.45;4.10;;;4.10;99.90;;;;;;5034642;28;20458;-82
2022/03/19 03:55:54;;;;;;;9.77;4.88;;;;;;;;;;5018272;28;20132;-83
2022/03/19 03:58:21;;;;;;;15.45;3.92;;;;;;;;;;5035149;28;20502;-83
2022/03/19 04:00:47;;;;;;;11.93;4.28;;;;;;;;;;5018766;28;20095;-83
2022/03/19 04:03:13;;;;;;;18.33;4.35;;;;;;;;;;5033669;28;20464;-83
2022/03/19 04:05:39;;;;;;;13.77;4.07;;;;;;;;;;5035160;28;20538;-82
2022/03/19 04:08:06;;;;;;;11.32;4.80;;;;;;;;;;5018645;28;20056;-83
2022/03/19 04:10:32;;;;;;;10.80;4.40;;;;;;;;;;5017524;28;20136;-83
2022/03/19 04:12:59;;;;;;;13.55;4.22;;;;;;;;;;5017682;28;20457;-83
2022/03/19 04:15:25;;;;;;;21.73;5.93;;;;;;;;;;5034207;28;20489;-83
2022/03/19 04:17:51;;;;;;;11.35;4.32;;;;;;;;;;5017006;28;20050;-83
2022/03/19 04:20:17;;;;;;;13.50;4.70;;;;;;;;;;5017606;28;20045;-83
2022/03/19 04:22:44;;;;;;;18.25;6.47;;;;;;;;;;5035408;28;20428;-83
2022/03/19 04:25:14;;;;;;;12.90;5.82;;;;;;;;;;5034094;28;20128;-84
2022/03/19 04:27:41;;;;;;;11.98;5.05;;;;;;;;;;5033809;28;20209;-83
2022/03/19 04:30:08;;;;;;;9.43;4.22;;;;;;;;;;5033832;28;20041;-84
2022/03/19 04:32:41;;;;;;;11.90;4.78;;;;;;;;;;5017285;28;20034;-83
2022/03/19 04:36:30;;;;;;;11.68;5.20;;;;;;;;;;5034138;28;20441;-83
2022/03/19 04:37:54;;;;;;;18.15;5.03;;;;;;;;;;5034055;28;20052;-83
2022/03/19 04:40:20;;;;;;;19.08;5.28;;;;;;;;;;5033279;28;20045;-83
2022/03/19 04:42:46;;;;;;;10.98;5.13;;;;;;;;;;5033478;28;20063;-83
2022/03/19 04:45:13;;;;;;;17.77;6.10;;;;;;;;;;5017823;28;20045;-83
2022/03/19 04:47:39;;;;;;;13.85;5.18;;;;;;;;;;5018527;28;20091;-84
2022/03/19 04:50:05;;;;;;;13.18;4.93;;;;;;;;;;5018779;28;20067;-83
2022/03/19 04:52:32;;;;;;;17.15;4.80;;;;;;;;;;5034453;28;20046;-84
2022/03/19 04:55:00;;;;;;;14.40;5.65;;;;;;;;;;5034773;28;20084;-83
2022/03/19 04:57:27;;;;;;;17.23;5.90;;;;;;;;;;5017635;28;20592;-82
2022/03/19 04:59:53;;;;;;;15.30;4.93;;;;;;;;;;5034026;28;20057;-84
2022/03/19 05:02:20;;;;;;;12.15;5.53;;;;;;;;;;5018523;28;20488;-87
2022/03/19 05:04:46;;;;;;;18.70;5.25;;;;;;;;;;5034355;28;20076;-84
2022/03/19 05:07:12;;;;;;;12.45;4.53;;;;;;;;;;5017807;28;20042;-84
2022/03/19 05:12:30;;;;;;;15.05;5.45;;;3.60;99.90;;;;;;5033104;28;20053;-86
2022/03/19 05:14:56;;;;;;;13.35;5.53;;;;;;;;;;5016566;28;20153;-84
2022/03/19 05:17:22;;;;;;;12.23;4.95;;;;;;;;;;5032566;28;20101;-85
2022/03/19 05:19:48;;;;;;;15.75;5.28;;;;;;;;;;5032798;28;20046;-84
2022/03/19 05:22:14;;;;;;;20.83;5.47;;;;;;;;;;5015963;28;20083;-84
2022/03/19 05:24:41;;;;;;;24.77;5.10;;;;;;;;;;5033267;28;20064;-84
2022/03/19 05:27:08;;;;;;;14.52;5.47;;;;;;;;;;5032366;28;20056;-83
2022/03/19 05:29:34;;;;;;;13.88;5.50;;;;;;;;;;5016066;28;20041;-83
2022/03/19 05:32:01;;;;;;;11.75;5.68;;;;;;;;;;5032906;28;20060;-85
2022/03/19 05:34:29;;;;;;;8.65;4.97;;;;;;;;;;5032579;28;20077;-89
2022/03/19 05:36:56;;;;;;;14.95;4.85;;;;;;;;;;5033826;28;20041;-88
2022/03/19 05:39:22;;;;;;;13.25;5.03;;;;;;;;;;5032210;28;20069;-84
2022/03/19 05:41:48;;;;;;;15.93;6.20;;;;;;;;;;5032580;28;20049;-85
2022/03/19 05:44:14;;;;;;;14.07;5.68;;;;;;;;;;5032901;28;20068;-88
2022/03/19 05:46:40;;;;;;;15.73;6.25;;;;;;;;;;5032460;28;20461;-88
2022/03/19 05:49:06;;;;;;;12.23;5.60;;;;;;;;;;5032831;28;20079;-87
2022/03/19 05:51:32;;;;;;;23.17;6.75;;;;;;;;;;5015748;28;20076;-86
2022/03/19 05:53:59;;;;;;;11.50;5.40;;;;;;;;;;5015911;28;20049;-87
2022/03/19 05:56:25;;;;;;;16.02;6.70;;;;;;;;;;5015928;28;20038;-86
2022/03/19 05:58:51;;;;;;;16.08;6.68;;;;;;;;;;5032020;28;20045;-85
2022/03/19 06:01:26;;;;;;;13.30;6.32;;;;;;;;;;5017386;28;20439;-89
2022/03/19 06:03:52;;;;;;;21.80;7.88;;;;;;;;;;5016081;28;20045;-88
2022/03/19 06:06:18;;;;;;;12.00;7.38;;;;;;;;;;5032507;28;20053;-88
2022/03/19 06:08:44;;;;;;;17.23;7.07;;;;;;;;;;5015605;28;20140;-86
2022/03/19 06:11:10;;;;;;;13.48;7.18;;;;;;;;;;5016145;28;20061;-85
2022/03/19 06:13:36;;;;;;;13.02;7.28;;;;;;;;;;5015460;28;20053;-88
2022/03/19 06:16:02;;;;;;;22.35;7.90;;;;;;;;;;5015972;28;20460;-85
2022/03/19 06:18:29;;;;;;;9.55;6.93;;;;;;;;;;5032257;28;20053;-83
2022/03/19 06:20:56;;;;;;;17.17;7.13;;;;;;;;;;5015908;28;20132;-83
2022/03/19 06:23:22;;;;;;;23.25;8.70;;;;;;;;;;5016272;28;20053;-84
2022/03/19 06:25:48;;;;;;;13.82;6.32;;;;;;;;;;5033848;28;20041;-83
2022/03/19 06:28:15;;;;;;;26.65;7.15;;;;;;;;;;5036533;28;20045;-88
2022/03/19 06:30:41;;;;;;;16.88;7.05;;;;;;;;;;5021015;28;20402;-83
2022/03/19 06:33:07;;;;;;;16.00;6.72;;;;;;;;;;5020580;28;20051;-82
2022/03/19 06:38:19;;;;;;;19.40;8.68;;;;;;;;;;5036370;28;20468;-82
2022/03/19 06:40:45;;;;;;;21.42;8.13;;;;;;;;;;5036263;28;20045;-82
2022/03/19 06:43:11;;;;;;;23.30;8.93;;;;;;;;;;5019436;28;20058;-82
2022/03/19 06:45:38;;;;;;;12.25;6.88;;;;;;;;;;5018609;28;20544;-82
2022/03/19 06:48:04;;;;;;;18.05;8.27;;;;;;;;;;5019322;28;20123;-84
2022/03/19 06:50:30;;;;;;;24.40;8.02;;;;;;;;;;5019373;28;20041;-84
2022/03/19 06:52:56;;;;;;;14.38;7.82;;;;;;;;;;5035758;28;20049;-84
2022/03/19 06:55:22;;;;;;;14.57;7.05;;;;;;;;;;5037388;28;20043;-84
2022/03/19 06:57:48;;;;;;;24.77;7.80;;;;;;;;;;5019554;28;20133;-89
2022/03/19 07:00:15;;;;;;;17.95;7.60;;;;;;;;;;5019148;28;20081;-85
2022/03/19 07:02:47;;;;;;;20.85;7.32;;;;;;;;;;5036714;28;20081;-86
2022/03/19 07:05:14;;;;;;;17.08;9.30;;;;;;;;;;5036071;28;20455;-87
2022/03/19 07:07:40;;;;;;;17.50;7.50;;;;;;;;;;5019206;28;20449;-86
2022/03/19 07:10:06;;;;;;;18.15;7.35;;;;;;;;;;5035781;28;20136;-85
2022/03/19 07:12:40;;;;;;;14.85;6.70;;;;;;;;;;5035288;28;20046;-83
2022/03/19 07:15:06;;;;;;;18.88;7.93;;;;;;;;;;5036556;28;20080;-83
2022/03/19 07:17:33;;;;;;;13.73;7.03;;;;;;;;;;5036464;28;20179;-88
2022/03/19 07:20:02;;;;;;;22.80;7.22;;;;;;;;;;5036133;28;20053;-89
2022/03/19 07:22:28;;;;;;;17.13;7.82;;;;;;;;;;5036926;28;20060;-87
2022/03/19 07:25:03;;;;;;;18.75;7.93;;;;;;;;;;5036213;28;20049;-87
2022/03/19 07:27:29;;;;;;;17.15;8.57;;;;;;;;;;5036137;28;20057;-89
2022/03/19 07:29:56;;;;;;;14.45;7.45;;;;;;;;;;5037771;28;20528;-86
2022/03/19 07:32:22;;;;;;;22.90;7.72;;;;;;;;;;5037662;28;20122;-88
2022/03/19 07:34:48;;;;;;;14.30;7.10;;;;;;;;;;5019549;28;20053;-83
2022/03/19 07:37:14;;;;;;;22.13;8.10;;;;;;;;;;5035307;28;20041;-86
2022/03/19 07:39:41;;;;;;;13.88;7.18;;;;;;;;;;5036294;28;20080;-89
2022/03/19 07:42:08;;;;;;;14.70;7.53;;;;;;;;;;5036169;28;20089;-89
2022/03/19 07:44:35;;;;;;;19.02;7.00;;;;;;;;;;5036165;28;20045;-85
2022/03/19 07:47:01;;;;;;;12.60;6.63;;;;;;;;;;5036040;28;20052;-82
2022/03/19 07:49:27;;;;;;;9.68;6.47;;;;;;;;;;5035950;28;20053;-82
2022/03/19 07:51:55;;;;;;;11.65;6.60;;;;;;;;;;5035732;28;20564;-81
2022/03/19 07:54:23;;;;;;;18.98;6.60;;;;;;;;;;5035197;28;20061;-81
2022/03/19 07:56:51;;;;;;;15.95;7.65;;;;;;;;;;5035547;28;20084;-81
2022/03/19 07:59:17;;;;;;;9.43;4.93;;;;;;;;;;5036421;28;20567;-81
2022/03/19 08:01:43;;;;;;;21.02;5.82;;;;;;;;;;5019411;28;20072;-82
2022/03/19 08:04:10;;;;;;;12.82;5.47;;;;;;;;;;5019043;28;20383;-81
2022/03/19 08:06:37;;;;;;;14.15;5.88;;;;;;;;;;5036349;28;20075;-81
2022/03/19 08:09:04;;;;;;;18.83;5.95;;;;;;;;;;5034851;28;20128;-81
2022/03/19 08:11:31;;;;;;;13.75;4.80;;;;;;;;;;5019392;28;20041;-81
2022/03/19 08:13:57;;;;;;;11.23;5.88;;;;;;;;;;5035736;28;20124;-82
2022/03/19 08:16:24;;;;;;;13.07;5.20;;;;;;;;;;5035399;28;20103;-81
2022/03/19 08:18:50;;;;;;;14.10;5.40;;;;;;;;;;5037138;28;20041;-82
2022/03/19 08:21:17;;;;;;;14.32;4.43;;;;;;;;;;5035511;28;20512;-82
2022/03/19 08:23:43;;;;;;;10.30;4.63;;;;;;;;;;5018889;28;20041;-82
2022/03/19 08:26:09;;;;;;;15.23;4.95;;;;;;;;;;5036566;28;20041;-82
2022/03/19 08:28:35;;;;;;;16.33;4.97;;;;;;;;;;5036779;28;20473;-81
2022/03/19 08:31:01;;;;;;;11.00;4.18;;;;;;;;;;5019204;28;20046;-81
2022/03/19 08:33:28;;;;;;;12.20;4.68;;;;;;;;;;5034976;28;20041;-81
2022/03/19 08:35:54;;;;;;;16.25;4.45;;;;;;;;;;5035667;28;20045;-81
2022/03/19 08:41:05;;;;;;;16.35;4.18;;;;;;;;;;5035154;28;20049;-82
2022/03/19 08:43:31;;;;;;;16.35;3.85;;;;;;;;;;5034548;28;20136;-81
2022/03/19 08:45:58;;;;;;;16.67;5.20;;;;;;;;;;5019225;28;20124;-81
2022/03/19 08:48:24;;;;;;;11.15;4.82;;;;;;;;;;5018414;28;20045;-81
2022/03/19 08:50:50;;;;;;;12.90;3.90;;;;;;;;;;5035246;28;20084;-81
2022/03/19 08:53:17;;;;;;;12.25;4.30;;;;;;;;;;5018353;28;20520;-82
2022/03/19 08:55:43;;;;;;;11.52;4.13;;;;;;;;;;5018625;28;20049;-82
2022/03/19 08:58:09;;;;;;;12.30;4.22;;;;;;;;;;5034896;28;20095;-82
2022/03/19 09:00:37;;;;;;;19.85;4.93;;;;;;;;;;5034768;28;20057;-82
2022/03/19 09:03:03;;;;;;;10.82;4.82;;;;;;;;;;5034489;28;20025;-82
2022/03/19 09:05:30;;;;;;;10.98;4.93;;;;;;;;;;5018708;28;20486;-81
2022/03/19 09:07:56;;;;;;;14.77;5.32;;;;;;;;;;5034158;28;20172;-83
2022/03/19 09:10:22;;;;;;;10.35;3.95;;;;;;;;;;5033417;28;20056;-82
2022/03/19 09:12:48;;;;;;;15.35;3.15;;;;;;;;;;5033497;28;20571;-84
2022/03/19 09:15:15;;;;;;;21.50;4.20;;;;;;;;;;5033363;28;20495;-84
2022/03/19 09:17:41;;;;;;;10.35;3.30;;;8.20;99.90;;;;;;5033991;28;20042;-86
2022/03/19 09:20:10;;;;;;;16.30;4.05;;;;;;;;;;5033904;28;20037;-84
2022/03/19 09:22:37;;;;;;;11.25;3.65;;;;;;;;;;5034453;28;20045;-84
2022/03/19 09:25:06;;;;;;;8.85;2.95;;;;;;;;;;5034805;28;20059;-83
2022/03/19 09:27:32;;;;;;;8.50;3.45;;;;;;;;;;5034021;28;20490;-83
2022/03/19 09:29:58;;;;;;;9.32;3.13;;;;;;;;;;5034486;28;20053;-84
2022/03/19 09:32:24;;;;;;;10.55;3.30;;;;;;;;;;5033796;28;20037;-83
2022/03/19 09:34:52;;;;;;;8.02;2.65;;;;;;;;;;5034589;28;20049;-83
2022/03/19 09:37:18;;;;;;;12.27;4.10;;;;;;;;;;5034058;28;20041;-83
2022/03/19 09:39:44;;;;;;;9.02;2.95;;;;;;;;;;5033840;28;20052;-84
2022/03/19 09:42:12;;;;;;;10.07;2.80;;;;;;;;;;5032707;28;20148;-82
2022/03/19 09:44:39;;;;;;;10.02;3.00;;;;;;;;;;5033174;28;20057;-82
2022/03/19 09:47:05;;;;;;;10.15;2.60;;;;;;;;;;5034078;28;20037;-82
2022/03/19 09:49:32;;;;;;;7.97;3.05;;;;;;;;;;5016910;28;20045;-82
2022/03/19 09:51:58;;;;;;;10.40;3.60;;;;;;;;;;5035276;28;20522;-82
2022/03/19 09:54:27;;;;;;;7.95;3.17;;;;;;;;;;5035689;28;20096;-82
2022/03/19 09:56:59;;;;;;;9.65;2.90;;;;;;;;;;5034124;28;20050;-82
2022/03/19 09:59:27;;;;;;;8.55;2.85;;;;;;;;;;5033951;28;20052;-82
2022/03/19 10:01:53;;;;;;;6.32;3.00;;;;;;;;;;5037463;28;20148;-82
2022/03/19 10:04:20;;;;;;;8.05;2.88;;;;;;;;;;5038196;28;20060;-82
2022/03/19 10:09:43;;;;;;;11.15;3.25;;;;;;;;;;5039360;28;20490;-82
2022/03/19 10:12:23;;;;;;;8.57;3.58;;;;;;;;;;5037704;28;20124;-84
2022/03/19 10:14:53;;;;;;;7.68;3.05;;;;;;;;;;5038287;28;20042;-83
2022/03/19 10:17:33;;;;;;;10.85;3.50;;;;;;;;;;5039533;28;20099;-83
2022/03/19 10:20:07;;;;;;;10.80;3.53;;;;;;;;;;5037347;28;20103;-82
2022/03/19 10:22:34;;;;;;;8.10;2.78;;;;;;;;;;5036639;28;20552;-83
2022/03/19 10:25:02;;;;;;;7.25;2.92;;;;;;;;;;5037804;28;20092;-82
2022/03/19 10:27:32;;;;;;;11.82;3.47;;;;;;;;;;5037250;28;20095;-82
2022/03/19 10:30:10;;;;;;;10.40;3.47;;;;;;;;;;5037267;28;20045;-82
2022/03/19 10:32:37;;;;;;;5.68;3.15;;;;;;;;;;5021311;28;20057;-82
2022/03/19 10:35:04;;;;;;;10.50;3.45;;;;;;;;;;5020661;28;20052;-82
2022/03/19 10:37:41;;;;;;;5.70;2.92;;;;;;;;;;5037870;28;20049;-82
2022/03/19 10:40:09;;;;;;;9.68;3.13;;;;;;;;;;5036863;28;20053;-82
2022/03/19 10:42:36;;;;;;;9.65;3.88;;;;;;;;;;5021153;28;20085;-82
2022/03/19 10:45:02;;;;;;;5.15;2.90;;;;;;;;;;5037431;28;20158;-82
2022/03/19 10:47:29;;;;;;;7.63;3.40;;;;;;;;;;5038173;28;20033;-82
2022/03/19 10:50:01;;;;;;;10.35;3.67;;;;;;;;;;5022026;28;20068;-83
2022/03/19 10:52:28;;;;;;;8.10;3.80;;;;;;;;;;5038688;28;20048;-83
2022/03/19 10:54:54;;;;;;;8.93;3.65;;;;;;;;;;5020104;28;20094;-82
2022/03/19 10:57:21;;;;;;;13.90;3.70;;;;;;;;;;5037188;28;20042;-84
2022/03/19 10:59:47;;;;;;;9.02;2.88;;;;;;;;;;5020234;28;20482;-85
2022/03/19 11:02:19;;;;;;;9.00;3.50;;;;;;;;;;5036409;28;20052;-85
2022/03/19 11:04:47;;;;;;;6.35;2.53;;;;;;;;;;5036724;28;20475;-92
2022/03/19 11:07:13;;;;;;;4.63;2.40;;;;;;;;;;5035762;28;20038;-89
2022/03/19 11:09:40;;;;;;;6.15;3.03;;;;;;;;;;5036685;28;20053;-88
2022/03/19 11:12:07;;;;;;;7.00;2.40;;;;;;;;;;5036184;28;20065;-87
2022/03/19 11:14:35;;;;;;;5.15;2.72;;;;;;;;;;5020127;28;20049;-92
2022/03/19 11:17:25;;;;;;;10.35;3.10;;;;;;;;;;5038643;28;20046;-86
2022/03/19 11:19:53;;;;;;;3.00;2.10;;;;;;;;;;5038395;28;20111;-89
2022/03/19 11:22:21;;;;;;;8.30;2.20;;;;;;;;;;5022772;28;20052;-89
2022/03/19 11:25:03;;;;;;;4.13;1.80;;;;;;;;;;5038788;28;20053;-88
2022/03/19 11:27:32;;;;;;;6.10;2.50;;;;;;;;;;5039145;28;20132;-87
2022/03/19 11:30:01;;;;;;;5.50;1.70;;;;;;;;;;5022480;28;20084;-90
2022/03/19 11:32:27;;;;;;;8.68;2.63;;;;;;;;;;5022567;28;20452;-91
2022/03/19 11:34:59;;;;;;;7.18;2.28;;;;;;;;;;5022510;28;20053;-89
2022/03/19 11:38:04;;;;;;;3.83;2.45;;;;;;;;;;5019961;28;20088;-84
2022/03/19 11:40:32;;;;;;;3.22;2.20;;;;;;;;;;4964105;28;20121;-86
2022/03/19 11:43:01;;;;;;;7.60;2.45;;;;;;;;;;4963449;28;20050;-84
2022/03/19 11:45:27;;;;;;;5.57;2.05;;;;;;;;;;4979446;28;20046;-84
2022/03/19 11:47:59;;;;;;;4.55;1.85;;;;;;;;;;4980202;28;20069;-85
2022/03/19 11:50:26;;;;;;;7.93;2.35;;;;;;;;;;4963406;28;20053;-83
2022/03/19 11:52:58;;;;;;;6.25;2.22;;;;;;;;;;4964334;28;20459;-85
2022/03/19 11:55:29;;;;;;;8.00;2.47;;;;;;;;;;4963977;28;20046;-84
2022/03/19 11:58:02;;;;;;;10.15;2.38;;;;;;;;;;4979868;28;20062;-85
2022/03/19 12:00:29;;;;;;;3.90;2.55;;;;;;;;;;4964019;28;20057;-85
2022/03/19 12:03:05;;;;;;;3.22;1.65;;;;;;;;;;4979611;28;20589;-84
2022/03/19 12:05:42;;;;;;;5.10;1.58;;;;;;;;;;4980650;28;20123;-85
2022/03/19 12:08:09;;;;;;;3.85;1.67;;;;;;;;;;4979514;28;20576;-85
2022/03/19 12:10:54;;;;;;;5.43;2.00;;;;;;;;;;4975769;28;20748;-86
2022/03/19 12:13:36;;;;;;;2.17;1.60;;;;;;;;;;5034274;28;20045;-85
2022/03/19 12:16:04;;;;;;;5.55;2.10;;;;;;;;;;5036335;28;20042;-85
2022/03/19 12:18:34;;;;;;;4.53;1.88;;;;;;;;;;5037652;28;20045;-86
2022/03/19 12:21:11;;;;;;;5.43;2.00;;;;;;;;;;5036401;28;20049;-85
2022/03/19 12:23:42;;;;;;;4.57;1.80;;;;;;;;;;5036582;28;20041;-85
2022/03/19 12:26:10;;;;;;;4.75;1.85;;;;;;;;;;5019009;28;20049;-86
2022/03/19 12:28:56;;;;;;;4.97;2.10;;;;;;;;;;5036446;28;20138;-85
2022/03/19 12:31:33;;;;;;;4.38;1.98;;;;;;;;;;5040682;28;20038;-85
2022/03/19 12:33:59;;;;;;;5.78;2.28;;;;;;;;;;5034081;28;20057;-84
2022/03/19 12:36:25;;;;;;;4.70;2.28;;;;;;;;;;5036019;28;20478;-86
2022/03/19 12:38:52;;;;;;;7.10;2.15;;;;;;;;;;5036380;28;20041;-83
2022/03/19 12:41:28;;;;;;;3.85;2.00;;;;;;;;;;5034352;28;20505;-83
2022/03/19 12:43:55;;;;;;;7.30;1.90;;;;;;;;;;5033409;28;20499;-85
2022/03/19 12:46:25;;;;;;;2.90;1.52;;;;;;;;;;5035476;28;20048;-89
2022/03/19 12:48:52;;;;;;;9.30;1.73;;;;;;;;;;5035534;28;20085;-88
2022/03/19 12:51:25;;;;;;;4.03;1.38;;;;;;;;;;5017445;28;20041;-83
2022/03/19 12:53:51;;;;;;;4.90;1.43;;;;;;;;;;5033796;28;20049;-83
2022/03/19 12:56:17;;;;;;;3.85;1.75;;;;;;;;;;5034238;28;20429;-85
2022/03/19 12:58:45;;;;;;;4.55;2.20;;;11.90;99.90;;;;;;5034734;28;20042;-85
2022/03/19 13:01:15;;;;;;;12.93;2.13;;;;;;;;;;5033627;28;20068;-86
2022/03/19 13:03:41;;;;;;;6.85;2.38;;;;;;;;;;5017751;28;20045;-83
2022/03/19 13:06:08;;;;;;;3.83;2.05;;;;;;;;;;5018273;28;20122;-85
2022/03/19 13:08:52;;;;;;;4.05;1.80;;;;;;;;;;5033935;28;20045;-84
2022/03/19 13:11:19;;;;;;;2.72;1.50;;;;;;;;;;5021259;28;20124;-84
2022/03/19 13:13:47;;;;;;;3.20;1.52;;;12.10;99.90;;;;;;5018679;28;20044;-83
2022/03/19 13:16:28;;;;;;;5.13;1.58;;;12.20;99.90;;;;;;5033451;28;20049;-83
2022/03/19 13:19:04;;;;;;;2.97;1.35;;;;;;;;;;5033251;28;20049;-81
2022/03/19 13:21:31;;;;;;;7.15;1.38;;;;;;;;;;5034285;28;20045;-86
2022/03/19 13:23:59;;;;;;;2.65;1.80;;;;;;;;;;5034531;28;20401;-86
2022/03/19 13:26:28;;;;;;;3.72;1.67;;;;;;;;;;5016919;28;20127;-88
2022/03/19 13:29:37;;;;;;;1.38;1.27;;;12.20;99.90;;;;;;5033894;28;20057;-86
2022/03/19 13:32:05;;;;;;;6.50;2.20;;;12.10;99.90;;;;;;4977358;28;20150;-89
2022/03/19 13:34:39;;;;;;;3.13;1.52;;;12.10;99.90;;;;;;4977056;28;20161;-85
2022/03/19 13:37:09;;;;;;;1.85;1.50;;;;;;;;;;4981150;28;20046;-83
2022/03/19 13:39:36;;;;;;;1.52;1.20;;;;;;;;;;4982721;28;20053;-87
2022/03/19 13:42:02;;;;;;;4.72;1.52;;;;;;;;;;4981050;28;20154;-82
2022/03/19 13:44:29;;;;;;;3.22;1.98;;;;;;;;;;4997640;28;20054;-89
2022/03/19 13:47:07;;;;;;;3.40;1.23;;;;;;;;;;4980924;28;20439;-87
2022/03/19 13:49:40;;;;;;;5.10;1.48;;;12.30;99.90;;;;;;4996883;28;20061;-89
2022/03/19 13:52:06;;;;;;;1.63;1.00;;;;;;;;;;4964395;28;20050;-87
2022/03/19 13:54:45;;;;;;;3.95;1.33;;;12.30;99.90;;;;;;4964760;28;20086;-87
2022/03/19 13:57:16;;;;;;;3.33;1.35;;;;;;;;;;4965594;28;20104;-87
2022/03/19 13:59:43;;;;;;;1.80;1.48;;;;;;;;;;4980921;28;20046;-89
2022/03/19 14:02:09;;;;;;;1.67;1.30;;;;;;;;;;4964487;28;20057;-87
2022/03/19 14:04:36;;;;;;;4.70;1.67;;;;;;;;;;4964659;28;20058;-86
2022/03/19 14:07:02;;;;;;;5.00;1.60;;;;;;;;;;4965022;28;20053;-85
2022/03/19 14:09:29;;;;;;;3.88;1.63;;;;;;;;;;5017162;28;20068;-87
2022/03/19 14:11:55;;;;;;;6.78;1.52;;;;;;;;;;5036958;28;20045;-86
2022/03/19 14:14:21;;;;;;;2.88;1.95;;;;;;;;;;5019675;28;20467;-85
2022/03/19 14:17:21;;;;;;;5.22;1.80;;;;;;;;;;5021159;28;20375;-85
2022/03/19 14:19:51;;;;;;;2.33;1.50;;;;;;;;;;4990304;28;20052;-85
2022/03/19 14:22:17;;;;;;;3.17;1.33;;;;;;;;;;4963746;28;20062;-86
2022/03/19 14:24:45;;;;;;;4.10;1.60;;;;;;;;;;4979557;28;20046;-85
2022/03/19 14:27:11;;;;;;;5.15;1.88;;;;;;;;;;4963477;28;20384;-88
2022/03/19 14:29:37;;;;;;;9.00;1.90;;;;;;;;;;4979487;28;20061;-91
2022/03/19 14:32:04;;;;;;;2.80;1.25;;;;;;;;;;4963213;28;20077;-87
2022/03/19 14:34:30;;;;;;;2.97;2.15;;;;;;;;;;4963067;28;20143;-87
2022/03/19 14:36:56;;;;;;;4.07;2.30;;;;;;;;;;4979636;28;20065;-88
2022/03/19 14:39:22;;;;;;;4.25;1.70;;;;;;;;;;4979625;28;20042;-90
2022/03/19 14:41:48;;;;;;;5.30;2.25;;;;;;;;;;4964025;28;20061;-94
2022/03/19 14:44:16;;;;;;;4.43;1.92;;;;;;;;;;4964049;28;20057;-90
2022/03/19 14:46:42;;;;;;;7.25;1.88;;;;;;;;;;4963419;28;20049;-87
2022/03/19 14:49:08;;;;;;;5.30;3.13;;;;;;;;;;4963580;28;20088;-90